createdAt,value
2022-10-25T00:01:28.351Z,4.22
2022-10-25T00:03:55.321Z,5.55
2022-10-25T00:06:21.779Z,3.53
2022-10-25T00:08:48.216Z,5.63
2022-10-25T00:11:20.782Z,4.93
2022-10-25T00:13:50.913Z,6.47
2022-10-25T00:16:19.051Z,5.90
2022-10-25T00:18:45.540Z,4.75
2022-10-25T00:21:11.825Z,4.50
2022-10-25T00:23:38.084Z,6.18
2022-10-25T00:26:05.272Z,7.03
2022-10-25T00:28:31.869Z,6.22
2022-10-25T00:31:02.074Z,10.57
2022-10-25T00:33:32.083Z,6.68
2022-10-25T00:36:12.276Z,7.43
2022-10-25T00:38:39.029Z,12.02
2022-10-25T00:41:06.098Z,5.05
2022-10-25T00:48:30.775Z,8.75
2022-10-25T00:50:57.256Z,7.45
2022-10-25T00:53:27.324Z,4.40
2022-10-25T00:55:59.604Z,6.90
2022-10-25T00:58:28.512Z,9.07
2022-10-25T01:00:56.540Z,7.32
2022-10-25T01:03:23.757Z,5.50
2022-10-25T01:05:51.430Z,4.78
2022-10-25T01:08:19.710Z,6.43
2022-10-25T01:10:47.436Z,6.22
2022-10-25T01:13:13.990Z,10.13
2022-10-25T01:15:52.209Z,5.43
2022-10-25T01:18:22.629Z,6.82
2022-10-25T01:20:48.882Z,8.23
2022-10-25T01:23:30.149Z,6.93
2022-10-25T01:26:15.361Z,8.43
2022-10-25T01:29:00.420Z,6.45
2022-10-25T01:31:39.980Z,9.85
2022-10-25T01:34:10.926Z,7.20
2022-10-25T01:36:41.897Z,11.57
2022-10-25T01:39:10.916Z,4.45
2022-10-25T01:41:57.412Z,9.13
2022-10-25T01:44:33.918Z,6.80
2022-10-25T01:47:05.270Z,5.43
2022-10-25T01:49:31.480Z,5.50
2022-10-25T01:51:57.718Z,9.15
2022-10-25T01:54:27.508Z,4.72
2022-10-25T01:56:53.762Z,6.35
2022-10-25T01:59:34.859Z,4.75
2022-10-25T02:02:01.154Z,6.07
2022-10-25T02:04:30.422Z,3.53
2022-10-25T02:07:04.429Z,3.78
2022-10-25T02:09:36.572Z,5.85
2022-10-25T02:12:04.811Z,3.42
2022-10-25T02:14:40.379Z,8.80
2022-10-25T02:17:14.841Z,7.50
2022-10-25T02:19:43.341Z,10.55
2022-10-25T02:22:10.960Z,7.20
2022-10-25T02:24:37.495Z,6.13
2022-10-25T02:27:04.922Z,8.38
2022-10-25T02:29:32.698Z,4.90
2022-10-25T02:31:59.284Z,7.40
2022-10-25T02:34:25.638Z,8.85
2022-10-25T02:36:53.195Z,6.35
2022-10-25T02:39:20.394Z,5.70
2022-10-25T02:41:46.801Z,9.07
2022-10-25T02:44:13.348Z,9.88
2022-10-25T02:46:39.689Z,4.70
2022-10-25T02:49:05.970Z,7.70
2022-10-25T02:51:32.278Z,3.53
2022-10-25T02:53:58.595Z,5.00
2022-10-25T02:56:25.009Z,4.80
2022-10-25T02:58:52.348Z,7.70
2022-10-25T03:01:19.572Z,5.78
2022-10-25T03:03:45.934Z,8.63
2022-10-25T03:06:12.577Z,10.50
2022-10-25T03:08:39.389Z,6.13
2022-10-25T03:11:06.482Z,4.03
2022-10-25T03:13:32.831Z,6.63
2022-10-25T03:15:59.590Z,10.82
2022-10-25T03:18:25.986Z,12.98
2022-10-25T03:20:52.278Z,8.63
2022-10-25T03:23:18.671Z,6.13
2022-10-25T03:25:45.010Z,11.77
2022-10-25T03:28:11.273Z,8.23
2022-10-25T03:30:37.578Z,9.45
2022-10-25T03:33:03.929Z,7.65
2022-10-25T03:35:30.148Z,7.80
2022-10-25T03:37:56.369Z,14.18
2022-10-25T03:40:22.713Z,5.30
2022-10-25T03:42:49.122Z,8.00
2022-10-25T03:45:15.417Z,7.50
2022-10-25T03:47:41.717Z,8.85
2022-10-25T03:50:08.332Z,8.30
2022-10-25T03:52:34.868Z,9.38
2022-10-25T03:55:01.099Z,9.52
2022-10-25T03:57:27.361Z,8.07
2022-10-25T03:59:53.621Z,7.68
2022-10-25T04:02:19.870Z,10.23
2022-10-25T04:04:46.089Z,7.40
2022-10-25T04:07:12.353Z,8.77
2022-10-25T04:09:38.574Z,9.10
2022-10-25T04:12:04.951Z,13.25
2022-10-25T04:14:31.175Z,9.20
2022-10-25T04:16:57.559Z,13.07
2022-10-25T04:19:23.810Z,11.50
2022-10-25T04:21:50.048Z,26.15
2022-10-25T04:24:16.687Z,9.18
2022-10-25T04:26:43.202Z,9.50
2022-10-25T04:29:10.276Z,6.97
2022-10-25T04:34:02.733Z,8.13
2022-10-25T04:36:31.962Z,10.35
2022-10-25T04:38:58.196Z,9.70
2022-10-25T04:41:24.562Z,9.40
2022-10-25T04:43:51.044Z,9.90
2022-10-25T04:46:17.320Z,17.38
2022-10-25T04:48:43.626Z,8.30
2022-10-25T04:51:10.758Z,14.18
2022-10-25T04:53:37.014Z,5.60
2022-10-25T04:56:09.370Z,7.30
2022-10-25T04:58:36.126Z,6.47
2022-10-25T05:01:03.961Z,11.93
2022-10-25T05:03:30.505Z,7.45
2022-10-25T05:06:04.543Z,12.30
2022-10-25T05:08:30.802Z,14.18
2022-10-25T05:10:57.083Z,9.23
2022-10-25T05:13:23.337Z,10.98
2022-10-25T05:15:56.221Z,13.48
2022-10-25T05:18:22.641Z,16.77
2022-10-25T05:20:52.708Z,12.80
2022-10-25T05:23:19.086Z,15.70
2022-10-25T05:25:45.310Z,10.93
2022-10-25T05:28:11.586Z,10.30
2022-10-25T05:30:44.030Z,17.05
2022-10-25T05:33:10.553Z,15.43
2022-10-25T05:35:36.822Z,14.18
2022-10-25T05:38:03.061Z,6.53
2022-10-25T05:40:29.296Z,12.85
2022-10-25T05:42:55.622Z,9.13
2022-10-25T05:45:21.857Z,12.32
2022-10-25T05:47:48.089Z,15.10
2022-10-25T05:50:14.365Z,15.10
2022-10-25T05:52:43.798Z,18.05
2022-10-25T05:55:10.627Z,22.08
2022-10-25T05:57:36.883Z,28.55
2022-10-25T06:00:03.899Z,24.08
2022-10-25T06:04:56.515Z,20.50
2022-10-25T06:07:22.795Z,13.15
2022-10-25T06:09:49.084Z,18.50
2022-10-25T06:12:15.304Z,22.63
2022-10-25T06:14:41.563Z,24.73
2022-10-25T06:17:07.800Z,12.77
2022-10-25T06:19:34.107Z,26.73
2022-10-25T06:22:01.852Z,12.68
2022-10-25T06:24:28.137Z,14.57
2022-10-25T06:26:54.486Z,16.33
2022-10-25T06:29:20.840Z,13.10
2022-10-25T06:31:47.098Z,13.43
2022-10-25T06:34:13.351Z,13.70
2022-10-25T06:36:39.589Z,12.82
2022-10-25T06:39:07.077Z,11.40
2022-10-25T06:41:33.727Z,10.10
2022-10-25T06:44:05.355Z,19.63
2022-10-25T06:46:34.246Z,13.77
2022-10-25T06:49:01.631Z,13.02
2022-10-25T06:51:28.765Z,15.05
2022-10-25T06:53:57.105Z,12.73
2022-10-25T06:56:23.966Z,15.13
2022-10-25T06:58:50.243Z,15.75
2022-10-25T07:01:17.702Z,11.23
2022-10-25T07:03:44.261Z,16.80
2022-10-25T07:06:11.623Z,21.00
2022-10-25T07:08:39.020Z,14.20
2022-10-25T07:11:05.652Z,9.85
2022-10-25T07:13:32.823Z,9.32
2022-10-25T07:16:05.781Z,13.30
2022-10-25T07:18:32.431Z,15.60
2022-10-25T07:21:02.398Z,10.50
2022-10-25T07:23:28.952Z,12.18
2022-10-25T07:25:55.230Z,13.20
2022-10-25T07:28:21.829Z,16.00
2022-10-25T07:30:48.461Z,14.00
2022-10-25T07:33:15.438Z,14.20
2022-10-25T07:38:18.577Z,10.05
2022-10-25T07:40:44.877Z,8.45
2022-10-25T07:43:11.091Z,11.55
2022-10-25T07:45:38.466Z,11.43
2022-10-25T07:48:05.102Z,8.60
2022-10-25T07:50:31.347Z,13.55
2022-10-25T07:52:58.943Z,13.48
2022-10-25T07:55:25.214Z,8.95
2022-10-25T07:57:51.424Z,11.23
2022-10-25T08:00:17.755Z,9.32
2022-10-25T08:02:44.094Z,9.05
2022-10-25T08:05:10.500Z,10.45
2022-10-25T08:07:36.754Z,9.32
2022-10-25T08:10:03.133Z,6.20
2022-10-25T08:12:29.416Z,12.13
2022-10-25T08:14:55.701Z,15.07
2022-10-25T08:17:21.946Z,10.88
2022-10-25T08:19:51.200Z,8.55
2022-10-25T08:22:17.738Z,12.25
2022-10-25T08:24:44.037Z,14.60
2022-10-25T08:27:10.292Z,10.07
2022-10-25T08:29:36.630Z,13.27
2022-10-25T08:32:02.906Z,14.10
2022-10-25T08:34:32.323Z,12.48
2022-10-25T08:36:59.546Z,9.20
2022-10-25T08:39:25.756Z,7.82
2022-10-25T08:41:56.058Z,6.28
2022-10-25T08:44:22.352Z,10.18
2022-10-25T08:47:03.077Z,9.60
2022-10-25T08:49:37.771Z,8.43
2022-10-25T08:52:05.773Z,6.15
2022-10-25T08:54:37.558Z,13.02
2022-10-25T08:57:24.219Z,8.75
2022-10-25T08:59:52.119Z,9.68
2022-10-25T09:02:21.292Z,6.45
2022-10-25T09:04:47.842Z,9.95
2022-10-25T09:07:29.075Z,7.32
2022-10-25T09:10:09.007Z,11.43
2022-10-25T09:12:40.815Z,5.95
2022-10-25T09:15:07.134Z,14.88
2022-10-25T09:17:46.240Z,10.45
2022-10-25T09:20:20.418Z,13.60
2022-10-25T09:22:49.706Z,8.05
2022-10-25T09:25:29.947Z,10.75
2022-10-25T09:28:00.297Z,13.20
2022-10-25T09:30:27.891Z,12.02
2022-10-25T09:32:56.666Z,10.05
2022-10-25T09:35:25.861Z,10.20
2022-10-25T09:37:53.492Z,10.15
2022-10-25T09:40:22.717Z,10.07
2022-10-25T09:43:01.747Z,11.77
2022-10-25T09:45:37.314Z,8.35
2022-10-25T09:48:13.415Z,9.52
2022-10-25T09:50:58.421Z,8.98
2022-10-25T09:53:24.691Z,13.13
2022-10-25T09:55:50.914Z,9.68
2022-10-25T09:58:33.710Z,9.75
2022-10-25T10:01:05.745Z,13.35
2022-10-25T10:03:33.261Z,7.00
2022-10-25T10:06:01.382Z,8.50
2022-10-25T10:08:28.393Z,7.97
2022-10-25T10:10:54.960Z,12.73
2022-10-25T10:13:42.680Z,9.45
2022-10-25T10:16:17.990Z,8.02
2022-10-25T10:18:44.512Z,8.23
2022-10-25T10:21:10.745Z,6.47
2022-10-25T10:23:42.812Z,15.32
2022-10-25T10:26:29.571Z,13.27
2022-10-25T10:29:07.908Z,8.73
2022-10-25T10:31:39.695Z,7.32
2022-10-25T10:34:08.349Z,12.55
2022-10-25T10:36:34.973Z,6.38
2022-10-25T10:39:33.582Z,7.80
2022-10-25T10:44:34.626Z,14.00
2022-10-25T10:47:02.003Z,7.68
2022-10-25T10:49:34.958Z,9.73
2022-10-25T10:52:02.902Z,6.72
2022-10-25T10:54:46.058Z,6.93
2022-10-25T10:57:21.632Z,5.75
2022-10-25T10:59:55.131Z,4.43
2022-10-25T11:02:23.556Z,8.20
2022-10-25T11:04:51.160Z,6.18
2022-10-25T11:07:31.393Z,6.45
2022-10-25T11:10:12.808Z,6.03
2022-10-25T11:12:41.274Z,3.10
2022-10-25T11:15:10.848Z,4.75
2022-10-25T11:17:39.554Z,7.93
2022-10-25T11:20:08.957Z,6.35
2022-10-25T11:22:51.110Z,7.75
2022-10-25T11:25:33.771Z,5.43
2022-10-25T11:28:05.989Z,8.98
2022-10-25T11:30:55.583Z,7.40
2022-10-25T11:33:21.984Z,7.82
2022-10-25T11:36:05.359Z,8.48
2022-10-25T11:38:50.202Z,13.15
2022-10-25T11:41:16.418Z,7.45
2022-10-25T11:43:48.704Z,6.57
2022-10-25T11:46:22.346Z,10.73
2022-10-25T11:49:00.990Z,8.02
2022-10-25T11:51:27.189Z,4.90
2022-10-25T11:53:59.545Z,5.43
2022-10-25T11:56:44.462Z,8.32
2022-10-25T11:59:25.164Z,6.65
2022-10-25T12:02:00.412Z,8.93
2022-10-25T12:04:35.813Z,9.07
2022-10-25T12:07:19.119Z,10.90
2022-10-25T12:09:50.309Z,12.55
2022-10-25T12:12:18.919Z,9.48
2022-10-25T12:14:50.173Z,6.13
2022-10-25T12:17:24.449Z,9.70
2022-10-25T12:19:51.723Z,5.57
2022-10-25T12:22:23.344Z,7.70
2022-10-25T12:25:00.150Z,10.50
2022-10-25T12:30:02.957Z,9.90
2022-10-25T12:34:57.523Z,4.80
2022-10-25T12:37:34.913Z,5.95
2022-10-25T12:40:01.250Z,6.15
2022-10-25T12:42:33.483Z,6.93
2022-10-25T12:45:15.058Z,6.43
2022-10-25T12:47:48.231Z,6.55
2022-10-25T12:50:33.086Z,5.55
2022-10-25T12:52:59.338Z,4.57
2022-10-25T12:55:28.585Z,6.95
2022-10-25T12:58:10.309Z,7.03
2022-10-25T13:00:39.910Z,7.03
2022-10-25T13:03:19.720Z,11.52
2022-10-25T13:05:58.042Z,7.28
2022-10-25T13:08:25.723Z,5.00
2022-10-25T13:11:05.877Z,6.10
2022-10-25T13:13:53.578Z,6.68
2022-10-25T13:16:28.367Z,6.47
2022-10-25T13:19:14.664Z,6.03
2022-10-25T13:21:55.063Z,4.10
2022-10-25T13:24:36.642Z,6.47
2022-10-25T13:27:09.076Z,7.82
2022-10-25T13:29:54.132Z,4.15
2022-10-25T13:32:20.613Z,6.18
2022-10-25T13:34:47.469Z,4.25
2022-10-25T13:37:31.723Z,8.18
2022-10-25T13:39:59.773Z,6.60
2022-10-25T13:42:33.190Z,4.32
2022-10-25T13:44:59.420Z,4.90
2022-10-25T13:47:28.454Z,5.63
2022-10-25T13:49:54.862Z,6.18
2022-10-25T13:52:23.360Z,6.25
2022-10-25T13:54:51.953Z,5.40
2022-10-25T13:57:48.318Z,4.00
2022-10-25T14:00:23.691Z,7.53
2022-10-25T14:03:08.386Z,7.72
2022-10-25T14:06:02.369Z,10.02
2022-10-25T14:08:36.434Z,6.25
2022-10-25T14:11:06.095Z,8.15
2022-10-25T14:13:48.171Z,10.50
2022-10-25T14:16:26.479Z,5.35
2022-10-25T14:18:53.778Z,5.07
2022-10-25T14:21:20.388Z,6.32
2022-10-25T14:23:48.767Z,7.20
2022-10-25T14:26:16.048Z,10.40
2022-10-25T14:28:42.735Z,8.82
2022-10-25T14:31:12.477Z,7.88
2022-10-25T14:33:42.107Z,8.40
2022-10-25T14:36:10.896Z,8.63
2022-10-25T14:38:48.532Z,3.25
2022-10-25T14:41:14.759Z,13.15
2022-10-25T14:43:41.242Z,13.43
2022-10-25T14:46:10.268Z,5.88
2022-10-25T14:48:36.646Z,8.68
2022-10-25T14:51:05.454Z,5.10
2022-10-25T14:53:31.951Z,7.00
2022-10-25T14:55:59.435Z,11.60
2022-10-25T14:58:26.492Z,8.82
2022-10-25T15:00:56.789Z,8.32
2022-10-25T15:03:23.402Z,5.97
2022-10-25T15:05:51.126Z,6.03
2022-10-25T15:08:19.615Z,6.78
2022-10-25T15:10:48.772Z,6.75
2022-10-25T15:13:20.998Z,9.00
2022-10-25T15:15:51.468Z,17.98
2022-10-25T15:18:29.473Z,7.50
2022-10-25T15:21:05.856Z,10.95
2022-10-25T15:23:32.260Z,5.57
2022-10-25T15:25:58.760Z,8.45
2022-10-25T15:28:25.062Z,13.57
2022-10-25T15:30:51.291Z,5.57
2022-10-25T15:33:18.943Z,12.27
2022-10-25T15:35:47.626Z,55.08
2022-10-25T15:38:13.954Z,15.60
2022-10-25T15:40:41.681Z,26.60
2022-10-25T15:43:07.896Z,13.02
2022-10-25T15:45:34.305Z,18.67
2022-10-25T15:48:00.659Z,14.68
2022-10-25T15:50:27.084Z,117.05
2022-10-25T15:52:53.866Z,25.83
2022-10-25T15:55:21.890Z,64.22
2022-10-25T15:57:48.629Z,18.58
2022-10-25T16:00:16.078Z,28.15
2022-10-25T16:02:42.334Z,24.80
2022-10-25T16:05:28.895Z,15.52
2022-10-25T16:07:55.212Z,28.40
2022-10-25T16:10:22.469Z,28.10
2022-10-25T16:12:50.515Z,33.42
2022-10-25T16:15:17.681Z,27.48
2022-10-25T16:17:44.691Z,36.85
2022-10-25T16:22:37.084Z,15.68
2022-10-25T16:25:03.352Z,12.57
2022-10-25T16:27:29.682Z,18.48
2022-10-25T16:29:56.063Z,18.65
2022-10-25T16:32:22.342Z,27.05
2022-10-25T16:34:48.641Z,19.15
2022-10-25T16:37:14.874Z,10.50
2022-10-25T16:39:41.137Z,12.15
2022-10-25T16:42:26.048Z,8.80
2022-10-25T16:44:52.282Z,14.00
2022-10-25T16:47:21.274Z,9.85
2022-10-25T16:49:47.714Z,9.50
2022-10-25T16:52:14.131Z,16.77
2022-10-25T16:54:40.391Z,9.73
2022-10-25T16:57:07.336Z,10.13
2022-10-25T17:01:59.838Z,8.00
2022-10-25T17:04:26.771Z,13.93
2022-10-25T17:06:53.298Z,9.20
2022-10-25T17:09:19.605Z,11.07
2022-10-25T17:11:46.058Z,10.40
2022-10-25T17:14:13.710Z,15.23
2022-10-25T17:16:40.613Z,9.23
2022-10-25T17:19:06.870Z,12.88
2022-10-25T17:21:35.654Z,16.08
2022-10-25T17:24:02.273Z,12.23
2022-10-25T17:26:28.555Z,8.55
2022-10-25T17:28:54.804Z,5.65
2022-10-25T17:31:21.057Z,8.80
2022-10-25T17:33:47.333Z,11.10
2022-10-25T17:36:14.773Z,11.75
2022-10-25T17:38:41.297Z,11.93
2022-10-25T17:41:07.752Z,14.00
2022-10-25T17:43:34.421Z,7.72
2022-10-25T17:46:01.529Z,13.73
2022-10-25T17:48:28.044Z,12.05
2022-10-25T17:50:54.364Z,9.32
2022-10-25T17:53:20.837Z,9.27
2022-10-25T17:55:47.108Z,10.75
2022-10-25T17:58:13.401Z,10.35
2022-10-25T18:00:39.658Z,8.65
2022-10-25T18:03:06.035Z,10.00
2022-10-25T18:05:32.385Z,7.38
2022-10-25T18:07:58.786Z,17.67
2022-10-25T18:10:25.152Z,8.07
2022-10-25T18:12:51.586Z,25.20
2022-10-25T18:15:18.277Z,28.15
2022-10-25T18:17:46.746Z,44.80
2022-10-25T18:20:13.529Z,27.50
2022-10-25T18:22:39.777Z,395.25
2022-10-25T18:25:06.363Z,345.73
2022-10-25T18:27:32.595Z,152.45
2022-10-25T18:29:58.848Z,149.95
2022-10-25T18:32:32.134Z,99.13
2022-10-25T18:35:01.536Z,142.60
2022-10-25T18:37:27.903Z,269.08
2022-10-25T18:39:54.479Z,109.05
2022-10-25T18:42:20.803Z,23.25
2022-10-25T18:44:47.063Z,12.18
2022-10-25T18:47:13.311Z,27.45
2022-10-25T18:49:39.621Z,27.73
2022-10-25T18:52:06.061Z,16.40
2022-10-25T18:54:32.276Z,26.13
2022-10-25T18:56:58.515Z,12.50
2022-10-25T18:59:24.799Z,9.98
2022-10-25T19:01:51.217Z,15.65
2022-10-25T19:04:17.541Z,20.13
2022-10-25T19:06:44.315Z,23.10
2022-10-25T19:09:10.701Z,15.57
2022-10-25T19:11:37.085Z,13.35
2022-10-25T19:14:04.107Z,18.50
2022-10-25T19:18:56.561Z,9.95
2022-10-25T19:21:22.844Z,10.82
2022-10-25T19:23:49.220Z,12.38
2022-10-25T19:26:19.414Z,13.82
2022-10-25T19:28:46.013Z,11.55
2022-10-25T19:31:13.385Z,19.13
2022-10-25T19:33:39.983Z,14.15
2022-10-25T19:36:07.784Z,10.50
2022-10-25T19:38:37.711Z,26.83
2022-10-25T19:41:05.315Z,24.27
2022-10-25T19:43:32.116Z,12.70
2022-10-25T19:45:59.681Z,12.82
2022-10-25T19:48:26.151Z,10.48
2022-10-25T19:50:52.633Z,12.27
2022-10-25T19:53:22.076Z,12.88
2022-10-25T19:55:59.094Z,18.27
2022-10-25T19:58:25.402Z,25.40
2022-10-25T20:00:59.623Z,12.50
2022-10-25T20:03:25.881Z,11.18
2022-10-25T20:05:59.423Z,9.50
2022-10-25T20:08:25.811Z,14.98
2022-10-25T20:10:52.036Z,15.38
2022-10-25T20:13:18.436Z,10.27
2022-10-25T20:15:55.458Z,19.85
2022-10-25T20:18:23.006Z,20.98
2022-10-25T20:20:53.051Z,13.02
2022-10-25T20:23:20.137Z,15.15
2022-10-25T20:25:46.451Z,16.48
2022-10-25T20:28:12.958Z,11.23
2022-10-25T20:30:39.568Z,11.95
2022-10-25T20:33:06.682Z,14.70
2022-10-25T20:35:39.871Z,21.30
2022-10-25T20:38:06.437Z,14.93
2022-10-25T20:40:32.824Z,12.88
2022-10-25T20:42:59.123Z,12.63
2022-10-25T20:45:26.232Z,11.98
2022-10-25T20:47:55.912Z,20.00
2022-10-25T20:50:22.842Z,11.38
2022-10-25T20:53:09.413Z,11.57
2022-10-25T20:55:35.448Z,16.42
2022-10-25T20:58:01.692Z,9.82
2022-10-25T21:00:27.918Z,16.75
2022-10-25T21:02:54.160Z,12.45
2022-10-25T21:05:20.394Z,20.17
2022-10-25T21:07:47.087Z,12.98
2022-10-25T21:10:13.479Z,13.82
2022-10-25T21:12:39.716Z,12.55
2022-10-25T21:15:09.493Z,17.83
2022-10-25T21:17:38.259Z,10.45
2022-10-25T21:20:04.719Z,17.52
2022-10-25T21:22:31.063Z,18.13
2022-10-25T21:24:57.408Z,14.50
2022-10-25T21:27:23.734Z,18.23
2022-10-25T21:29:50.033Z,13.57
2022-10-25T21:32:16.358Z,18.45
2022-10-25T21:34:42.628Z,15.90
2022-10-25T21:37:08.882Z,12.45
2022-10-25T21:39:35.166Z,15.15
2022-10-25T21:42:01.495Z,13.75
2022-10-25T21:44:27.746Z,14.40
2022-10-25T21:46:54.238Z,12.85
2022-10-25T21:49:20.703Z,13.82
2022-10-25T21:51:47.236Z,19.48
2022-10-25T21:54:14.010Z,14.68
2022-10-25T21:56:40.263Z,11.88
2022-10-25T21:59:07.010Z,12.27
2022-10-25T22:01:33.545Z,12.00
2022-10-25T22:04:00.025Z,12.88
2022-10-25T22:06:27.182Z,13.40
2022-10-25T22:08:54.379Z,8.25
2022-10-25T22:11:22.007Z,9.68
2022-10-25T22:13:48.904Z,12.68
2022-10-25T22:16:16.487Z,17.55
2022-10-25T22:18:43.061Z,22.00
2022-10-25T22:21:10.825Z,10.73
2022-10-25T22:23:37.985Z,7.35
2022-10-25T22:26:14.917Z,11.32
2022-10-25T22:28:41.597Z,15.68
2022-10-25T22:31:12.030Z,13.38
2022-10-25T22:33:39.149Z,13.35
2022-10-25T22:36:06.676Z,17.05
2022-10-25T22:38:33.013Z,10.25
2022-10-25T22:41:00.096Z,9.70
2022-10-25T22:43:26.708Z,11.95
2022-10-25T22:45:53.234Z,14.35
2022-10-25T22:48:19.668Z,14.15
2022-10-25T22:50:53.333Z,13.30
2022-10-25T22:53:20.188Z,11.10
2022-10-25T22:55:56.726Z,11.05
2022-10-25T22:58:22.980Z,18.80
2022-10-25T23:00:49.274Z,17.58
2022-10-25T23:03:15.977Z,19.80
2022-10-25T23:05:42.245Z,31.38
2022-10-25T23:08:08.483Z,18.48
2022-10-25T23:10:34.758Z,10.63
2022-10-25T23:13:00.988Z,13.57
2022-10-25T23:15:27.244Z,9.70
2022-10-25T23:17:53.453Z,10.50
2022-10-25T23:20:19.693Z,7.90
2022-10-25T23:22:46.058Z,13.95
2022-10-25T23:25:12.450Z,11.65
2022-10-25T23:27:38.684Z,13.65
2022-10-25T23:30:07.631Z,13.38
2022-10-25T23:32:36.032Z,16.60
2022-10-25T23:35:02.260Z,15.55
2022-10-25T23:37:28.489Z,11.27
2022-10-25T23:39:54.757Z,16.45
2022-10-25T23:42:20.984Z,13.45
2022-10-25T23:44:47.225Z,13.88
2022-10-25T23:47:13.492Z,10.48
2022-10-25T23:49:39.746Z,10.63
2022-10-25T23:52:05.989Z,14.60
2022-10-25T23:54:32.256Z,11.13
2022-10-25T23:56:58.470Z,8.30
